Time;durP1;ratioP1;P1;durP2;ratioP2;P2;SDS_P1;SDS_P2;PMS_P1;PMS_P2;Temp;Humidity;BMP_temperature;BMP_pressure;BME280_temperature;BME280_humidity;BME280_pressure;Samples;Min_cycle;Max_cycle;Signal;HPM_P1;HPM_P2
2023/02/10 00:02:39;;;;;;;;;;;;;;;-1.44;69.42;101844.91;1088210;54;19935;-83
2023/02/10 00:03:41;;;;;;;;;;;;;;;-1.37;69.30;101840.44;1088642;54;19973;-83
2023/02/10 00:04:53;;;;;;;;;;;;;;;-1.39;69.09;101831.72;1088582;54;19934;-84
2023/02/10 00:05:55;;;;;;;;;;;;;;;-1.50;69.65;101835.38;1088534;54;19929;-82
2023/02/10 00:07:02;;;;;;;;;;;;;;;-1.62;69.83;101839.06;1088445;54;19994;-81
2023/02/10 00:08:06;;;;;;;;;;;;;;;-1.67;70.34;101826.91;1088570;54;19927;-82
2023/02/10 00:09:17;;;;;;;;;;;;;;;-1.70;70.45;101829.59;1088497;54;19978;-81
2023/02/10 00:10:19;;;;;;;;;;;;;;;-1.71;70.71;101825.22;1088514;54;19966;-83
2023/02/10 00:11:56;;;;;;;;;;;;;;;-1.74;70.82;101839.22;1088536;54;19949;-81
2023/02/10 00:12:45;;;;;;;;;;;;;;;-1.77;70.90;101832.28;1088389;54;19967;-81
2023/02/10 00:13:50;;;;;;;;;;;;;;;-1.81;71.13;101833.22;1088350;54;19978;-83
2023/02/10 00:14:53;;;;;;;;;;;;;;;-1.83;71.29;101841.97;1088354;54;19938;-83
2023/02/10 00:15:57;;;;;;;;;;;;;;;-1.81;71.29;101837.59;1088378;54;19950;-83
2023/02/10 00:17:01;;;;;;;;;;;;;;;-1.80;71.20;101837.59;1088371;54;19935;-82
2023/02/10 00:18:12;;;;;;;;;;;;;;;-1.88;71.30;101842.03;1088283;54;19943;-83
2023/02/10 00:19:19;;;;;;;;;;;;;;;-1.94;71.27;101844.75;1088331;54;19923;-80
2023/02/10 00:20:20;;;;;;;;;;;;;;;-1.95;71.52;101845.66;1088345;54;19966;-82
2023/02/10 00:21:30;;;;;;;;;;;;;;;-1.94;71.52;101844.75;1088363;54;19950;-83
2023/02/10 00:22:32;;;;;;;;;;;;;;;-1.97;71.28;101839.53;1088370;54;19938;-80
2023/02/10 00:23:36;;;;;;;;;;;;;;;-1.87;71.11;101851.66;1088446;54;19941;-80
2023/02/10 00:24:37;;;;;;;;;;;;;;;-1.79;70.79;101855.03;1088417;54;19943;-83
2023/02/10 00:25:42;;;;;;;;;;;;;;;-1.73;70.41;101854.97;1088489;54;20061;-81
2023/02/10 00:26:43;;;;;;;;;;;;;;;-1.68;70.14;101852.28;1088627;54;19926;-82
2023/02/10 00:27:53;;;;;;;;;;;;;;;-1.60;70.01;101860.00;1088485;54;19990;-84
2023/02/10 00:28:55;;;;;;;;;;;;;;;-1.53;69.78;101858.19;1088587;46;20288;-82
2023/02/10 00:30:09;;;;;;;;;;;;;;;-1.53;69.47;101859.06;1088571;46;20528;-83
2023/02/10 00:31:11;;;;;;;;;;;;;;;-1.47;69.44;101872.06;1088474;54;19938;-81
2023/02/10 00:32:19;;;;;;;;;;;;;;;-1.42;69.12;101859.75;1088431;54;19926;-80
2023/02/10 00:33:20;;;;;;;;;;;;;;;-1.37;68.96;101859.66;1088596;54;20587;-83
2023/02/10 00:34:27;;;;;;;;;;;;;;;-1.35;68.69;101862.28;1088597;54;19934;-83
2023/02/10 00:35:28;;;;;;;;;;;;;;;-1.35;68.76;101864.91;1088512;54;20574;-83
2023/02/10 00:36:32;;;;;;;;;;;;;;;-1.36;68.92;101864.03;1088448;54;19931;-85
2023/02/10 00:37:36;;;;;;;;;;;;;;;-1.42;68.73;101870.22;1088431;54;20379;-83
2023/02/10 00:38:40;;;;;;;;;;;;;;;-1.44;68.91;101874.66;1088548;54;19947;-84
2023/02/10 00:39:45;;;;;;;;;;;;;;;-1.47;69.10;101874.69;1088626;54;19938;-84
2023/02/10 00:40:46;;;;;;;;;;;;;;;-1.49;69.19;101878.25;1088541;54;19965;-84
2023/02/10 00:41:51;;;;;;;;;;;;;;;-1.53;69.10;101880.03;1088509;54;19943;-84
2023/02/10 00:42:52;;;;;;;;;;;;;;;-1.56;69.32;101885.31;1087854;54;19942;-82
2023/02/10 00:43:56;;;;;;;;;;;;;;;-1.57;69.75;101880.97;1087850;54;20465;-81
2023/02/10 00:44:57;;;;;;;;;;;;;;;-1.55;69.30;101886.19;1087707;54;19950;-82
2023/02/10 00:46:00;;;;;;;;;;;;;;;-1.57;69.75;101878.34;1087906;54;19947;-81
2023/02/10 00:47:02;;;;;;;;;;;;;;;-1.57;69.47;101884.47;1087839;54;19943;-81
2023/02/10 00:48:05;;;;;;;;;;;;;;;-1.57;69.76;101878.34;1087955;54;19926;-80
2023/02/10 00:49:06;;;;;;;;;;;;;;;-1.53;69.36;101885.28;1089829;39;20408;-82
2023/02/10 00:50:13;;;;;;;;;;;;;;;-1.50;69.23;101887.00;1087832;54;19946;-82
2023/02/10 00:51:14;;;;;;;;;;;;;;;-1.50;68.96;101877.34;1089728;46;19942;-82
2023/02/10 00:52:18;;;;;;;;;;;;;;;-1.49;69.16;101876.47;1087538;54;19946;-82
2023/02/10 00:53:19;;;;;;;;;;;;;;;-1.53;69.25;101877.41;1087745;54;20492;-82
2023/02/10 00:54:23;;;;;;;;;;;;;;;-1.63;69.46;101881.06;1087747;54;19973;-80
2023/02/10 00:55:24;;;;;;;;;;;;;;;-1.72;69.84;101876.78;1087669;54;19957;-79
2023/02/10 00:56:28;;;;;;;;;;;;;;;-1.75;69.84;101872.47;1087749;54;19950;-79
2023/02/10 00:57:29;;;;;;;;;;;;;;;-1.78;70.18;101879.50;1087783;54;19950;-81
2023/02/10 00:58:32;;;;;;;;;;;;;;;-1.85;70.28;101877.88;1087766;54;19953;-81
2023/02/10 00:59:34;;;;;;;;;;;;;;;-1.83;70.40;101879.56;1088587;46;19957;-79
2023/02/10 01:00:38;;;;;;;;;;;;;;;-1.86;70.24;101874.38;1087712;54;19958;-81
2023/02/10 01:01:40;;;;;;;;;;;;;;;-1.82;70.14;101880.44;1087654;54;19954;-80
2023/02/10 01:02:43;;;;;;;;;;;;;;;-1.71;69.88;101877.69;1087708;54;19950;-81
2023/02/10 01:03:45;;;;;;;;;;;;;;;-1.61;69.70;101874.06;1088711;39;20420;-80
2023/02/10 01:04:49;;;;;;;;;;;;;;;-1.55;69.32;101873.94;1087594;54;19950;-79
2023/02/10 01:05:53;;;;;;;;;;;;;;;-1.51;69.38;101887.88;1087554;54;19946;-81
2023/02/10 01:06:58;;;;;;;;;;;;;;;-1.47;69.31;101887.81;1087835;54;19950;-81
2023/02/10 01:08:00;;;;;;;;;;;;;;;-1.47;68.99;101895.69;1087821;39;20227;-81
2023/02/10 01:09:04;;;;;;;;;;;;;;;-1.48;69.22;101891.31;1088016;54;19943;-83
2023/02/10 01:10:06;;;;;;;;;;;;;;;-1.45;68.91;101885.16;1087932;46;19939;-80
2023/02/10 01:11:11;;;;;;;;;;;;;;;-1.42;68.87;101890.38;1087984;54;19926;-79
2023/02/10 01:12:12;;;;;;;;;;;;;;;-1.41;68.87;101890.34;1087994;54;19942;-81
2023/02/10 01:13:17;;;;;;;;;;;;;;;-1.39;68.87;101887.72;1088104;54;19938;-82
2023/02/10 01:14:18;;;;;;;;;;;;;;;-1.36;68.74;101894.66;1088290;54;19942;-84
2023/02/10 01:15:23;;;;;;;;;;;;;;;-1.35;68.58;101891.16;1088164;54;19947;-82
2023/02/10 01:16:27;;;;;;;;;;;;;;;-1.34;68.65;101892.91;1088212;54;19950;-82
2023/02/10 01:17:29;;;;;;;;;;;;;;;-1.35;68.64;101896.41;1089299;39;20276;-81
2023/02/10 01:18:32;;;;;;;;;;;;;;;-1.38;68.27;101892.06;1090443;39;20175;-81
2023/02/10 01:19:33;;;;;;;;;;;;;;;-1.41;68.51;101892.97;1088080;54;19958;-81
2023/02/10 01:20:39;;;;;;;;;;;;;;;-1.42;68.71;101904.34;1088230;54;19938;-83
2023/02/10 01:21:46;;;;;;;;;;;;;;;-1.37;68.62;101898.19;1088123;54;19958;-82
2023/02/10 01:22:47;;;;;;;;;;;;;;;-1.39;68.46;101905.19;1088105;54;19927;-81
2023/02/10 01:23:51;;;;;;;;;;;;;;;-1.37;68.53;101906.91;1087875;54;19947;-81
2023/02/10 01:24:52;;;;;;;;;;;;;;;-1.39;68.40;101907.81;1087798;54;20203;-81
2023/02/10 01:25:57;;;;;;;;;;;;;;;-1.38;68.49;101907.81;1087787;46;19942;-80
2023/02/10 01:27:01;;;;;;;;;;;;;;;-1.38;68.46;101901.69;1087767;54;19963;-81
2023/02/10 01:28:04;;;;;;;;;;;;;;;-1.39;68.23;101897.31;1087873;54;19943;-81
2023/02/10 01:29:07;;;;;;;;;;;;;;;-1.42;68.38;101899.09;1087731;54;19957;-80
2023/02/10 01:30:10;;;;;;;;;;;;;;;-1.42;68.23;101900.88;1087845;54;19950;-82
2023/02/10 01:31:15;;;;;;;;;;;;;;;-1.43;68.39;101907.00;1087788;54;19943;-82
2023/02/10 01:32:16;;;;;;;;;;;;;;;-1.42;68.14;101904.34;1087788;54;19947;-82
2023/02/10 01:33:20;;;;;;;;;;;;;;;-1.43;68.28;101907.00;1087947;54;19923;-82
2023/02/10 01:34:24;;;;;;;;;;;;;;;-1.42;68.06;101906.97;1087782;54;20814;-81
2023/02/10 01:35:25;;;;;;;;;;;;;;;-1.39;68.23;101902.56;1087805;54;19950;-80
2023/02/10 01:36:29;;;;;;;;;;;;;;;-1.41;67.97;101911.34;1087738;54;20438;-81
2023/02/10 01:37:32;;;;;;;;;;;;;;;-1.40;68.02;101912.22;1087763;54;20528;-81
2023/02/10 01:38:36;;;;;;;;;;;;;;;-1.41;68.04;101913.97;1089039;39;20417;-80
2023/02/10 01:39:37;;;;;;;;;;;;;;;-1.37;68.13;101913.91;1087870;54;19930;-81
2023/02/10 01:40:41;;;;;;;;;;;;;;;-1.43;67.82;101907.88;1087812;54;19950;-81
2023/02/10 01:41:45;;;;;;;;;;;;;;;-1.48;68.21;101914.94;1088189;54;19942;-82
2023/02/10 01:42:46;;;;;;;;;;;;;;;-1.52;68.38;101910.66;1088503;46;19942;-81
2023/02/10 01:44:00;;;;;;;;;;;;;;;-1.50;68.34;101913.22;1088185;54;19951;-82
2023/02/10 01:45:11;;;;;;;;;;;;;;;-1.54;68.59;101920.28;1088173;54;19962;-81
2023/02/10 01:46:15;;;;;;;;;;;;;;;-1.51;68.48;101917.59;1088061;46;19923;-81
2023/02/10 01:47:17;;;;;;;;;;;;;;;-1.50;68.53;101913.22;1087822;54;19934;-85
2023/02/10 01:48:22;;;;;;;;;;;;;;;-1.49;68.35;101920.22;1087629;54;19922;-81
2023/02/10 01:49:28;;;;;;;;;;;;;;;-1.51;68.43;101916.75;1087854;54;19958;-82
2023/02/10 01:50:34;;;;;;;;;;;;;;;-1.51;68.31;101922.00;1088182;54;19942;-82
2023/02/10 01:51:38;;;;;;;;;;;;;;;-1.50;68.46;101913.22;1088073;54;19942;-81
2023/02/10 01:52:50;;;;;;;;;;;;;;;-1.55;68.67;101921.16;1088174;54;19947;-82
2023/02/10 01:53:52;;;;;;;;;;;;;;;-1.60;68.73;101922.97;1088368;54;19946;-81
2023/02/10 01:55:02;;;;;;;;;;;;;;;-1.63;68.96;101933.53;1088340;54;19941;-82
2023/02/10 01:56:03;;;;;;;;;;;;;;;-1.73;69.26;101930.13;1088172;54;19939;-82
2023/02/10 01:57:07;;;;;;;;;;;;;;;-1.75;69.35;101937.19;1088353;54;19927;-83
2023/02/10 01:58:10;;;;;;;;;;;;;;;-1.77;69.29;101920.59;1088393;54;19934;-83
2023/02/10 01:59:14;;;;;;;;;;;;;;;-1.82;69.67;101930.25;1088267;54;19946;-82
2023/02/10 02:00:18;;;;;;;;;;;;;;;-1.80;69.39;101934.63;1088315;54;19950;-82
2023/02/10 02:01:21;;;;;;;;;;;;;;;-1.80;69.35;101926.75;1088243;54;19949;-83
2023/02/10 02:02:24;;;;;;;;;;;;;;;-1.84;69.55;101926.81;1088325;54;19934;-83
2023/02/10 02:03:28;;;;;;;;;;;;;;;-1.86;69.74;101924.19;1087812;54;21720;-83
2023/02/10 02:04:29;;;;;;;;;;;;;;;-1.89;69.60;101922.47;1088461;54;19956;-81
2023/02/10 02:05:34;;;;;;;;;;;;;;;-1.88;69.73;101932.06;1088344;54;20029;-83
2023/02/10 02:06:36;;;;;;;;;;;;;;;-1.89;69.72;101932.09;1088376;54;19950;-83
2023/02/10 02:07:40;;;;;;;;;;;;;;;-1.91;69.88;101939.13;1088360;54;20713;-83
2023/02/10 02:08:49;;;;;;;;;;;;;;;-1.96;70.25;101933.03;1088290;54;20543;-83
2023/02/10 02:09:50;;;;;;;;;;;;;;;-1.94;70.06;101933.91;1088272;54;19943;-82
2023/02/10 02:11:10;;;;;;;;;;;;;;;-1.94;69.78;101928.66;1088258;54;19942;-82
2023/02/10 02:12:16;;;;;;;;;;;;;;;-1.99;70.16;101930.47;1088279;54;19950;-83
2023/02/10 02:13:26;;;;;;;;;;;;;;;-2.02;70.58;101928.72;1088233;54;19933;-82
2023/02/10 02:14:33;;;;;;;;;;;;;;;-2.06;71.04;101932.28;1092304;39;20462;-82
2023/02/10 02:15:40;;;;;;;;;;;;;;;-2.05;70.53;101934.03;1088116;54;19958;-81
2023/02/10 02:16:49;;;;;;;;;;;;;;;-2.12;71.18;101935.84;1088111;54;19947;-81
2023/02/10 02:17:55;;;;;;;;;;;;;;;-2.16;71.64;101935.91;1088247;54;19943;-81
2023/02/10 02:18:59;;;;;;;;;;;;;;;-2.19;71.50;101939.44;1088077;54;19942;-81
2023/02/10 02:21:55;;;;;;;;;;;;;;;-2.27;72.10;101936.88;1088492;39;20459;-81
2023/02/10 02:23:17;;;;;;;;;;;;;;;-2.23;71.59;101940.34;1087836;54;19950;-81
2023/02/10 02:24:40;;;;;;;;;;;;;;;-2.20;71.65;101941.16;1087773;54;19962;-81
2023/02/10 02:26:05;;;;;;;;;;;;;;;-2.15;71.44;101940.25;1087729;54;19950;-82
2023/02/10 02:27:27;;;;;;;;;;;;;;;-2.10;71.02;101938.44;1087941;54;19943;-82
2023/02/10 02:28:37;;;;;;;;;;;;;;;-2.08;70.86;101945.41;1088057;54;20355;-83
2023/02/10 02:30:04;;;;;;;;;;;;;;;-2.07;70.90;101938.41;1088163;54;19934;-80
2023/02/10 02:31:26;;;;;;;;;;;;;;;-2.06;71.02;101934.91;1087912;54;19954;-82
2023/02/10 02:32:31;;;;;;;;;;;;;;;-2.10;71.47;101939.31;1087932;54;19953;-82
2023/02/10 02:33:33;;;;;;;;;;;;;;;-2.11;71.13;101940.22;1087863;54;19934;-81
2023/02/10 02:34:40;;;;;;;;;;;;;;;-2.10;71.08;101939.31;1087840;54;19998;-81
2023/02/10 02:35:43;;;;;;;;;;;;;;;-2.09;70.97;101942.81;1089106;46;19961;-81
2023/02/10 02:36:52;;;;;;;;;;;;;;;-2.07;70.97;101943.66;1087736;39;20150;-81
2023/02/10 02:37:53;;;;;;;;;;;;;;;-2.07;71.10;101941.03;1087860;54;19950;-82
2023/02/10 02:39:00;;;;;;;;;;;;;;;-2.04;70.89;101934.00;1087509;54;19950;-80
2023/02/10 02:40:03;;;;;;;;;;;;;;;-2.07;70.84;101933.19;1088048;46;19949;-80
2023/02/10 02:41:06;;;;;;;;;;;;;;;-2.06;70.80;101932.28;1087305;54;19957;-81
2023/02/10 02:42:14;;;;;;;;;;;;;;;-2.11;70.77;101927.09;1087194;54;19942;-80
2023/02/10 02:43:18;;;;;;;;;;;;;;;-2.14;70.98;101932.38;1087276;54;19947;-80
2023/02/10 02:44:19;;;;;;;;;;;;;;;-2.11;70.91;101934.09;1087109;54;19943;-80
2023/02/10 02:45:23;;;;;;;;;;;;;;;-2.09;70.66;101930.59;1087223;54;19942;-80
2023/02/10 02:46:33;;;;;;;;;;;;;;;-2.07;70.48;101928.78;1087125;54;20524;-80
2023/02/10 02:47:44;;;;;;;;;;;;;;;-2.03;70.18;101929.63;1087300;54;19977;-80
2023/02/10 02:48:52;;;;;;;;;;;;;;;-1.99;70.01;101933.94;1087277;54;19947;-80
2023/02/10 02:49:59;;;;;;;;;;;;;;;-1.95;69.98;101930.41;1087326;54;19942;-80
2023/02/10 02:51:05;;;;;;;;;;;;;;;-1.90;70.07;101935.59;1087292;54;19947;-80
2023/02/10 02:52:14;;;;;;;;;;;;;;;-1.88;69.97;101936.44;1087301;54;19950;-81
2023/02/10 02:53:21;;;;;;;;;;;;;;;-1.86;69.94;101936.44;1087279;54;19946;-80
2023/02/10 02:54:27;;;;;;;;;;;;;;;-1.85;69.96;101933.78;1088771;39;20372;-79
2023/02/10 02:55:33;;;;;;;;;;;;;;;-1.84;69.84;101935.53;1087444;54;19946;-82
2023/02/10 02:56:41;;;;;;;;;;;;;;;-1.83;69.60;101929.41;1087394;54;19947;-81
2023/02/10 02:57:46;;;;;;;;;;;;;;;-1.89;69.91;101934.72;1087336;54;19939;-82
2023/02/10 02:58:55;;;;;;;;;;;;;;;-1.89;70.06;101937.34;1087659;54;19991;-81
2023/02/10 03:00:02;;;;;;;;;;;;;;;-1.88;69.85;101946.91;1087229;54;20003;-82
2023/02/10 03:01:08;;;;;;;;;;;;;;;-1.87;69.71;101946.03;1088096;39;20425;-81
2023/02/10 03:02:14;;;;;;;;;;;;;;;-1.89;69.89;101948.69;1087700;54;20011;-81
2023/02/10 03:03:18;;;;;;;;;;;;;;;-1.84;69.84;101946.00;1087212;54;19975;-81
2023/02/10 03:04:19;;;;;;;;;;;;;;;-1.84;69.48;101946.00;1086640;54;19967;-80
2023/02/10 03:05:27;;;;;;;;;;;;;;;-1.88;69.75;101947.81;1087703;54;19942;-81
2023/02/10 03:06:28;;;;;;;;;;;;;;;-1.85;69.70;101951.28;1087476;54;19923;-81
2023/02/10 03:07:33;;;;;;;;;;;;;;;-1.88;69.64;101950.44;1087337;54;19963;-80
2023/02/10 03:08:36;;;;;;;;;;;;;;;-1.86;69.60;101947.78;1087136;54;20294;-81
2023/02/10 03:09:40;;;;;;;;;;;;;;;-1.91;69.71;101950.47;1087194;54;19950;-80
2023/02/10 03:10:41;;;;;;;;;;;;;;;-1.99;70.18;101944.44;1087294;54;19947;-82
2023/02/10 03:11:46;;;;;;;;;;;;;;;-2.07;70.62;101944.50;1088926;47;19949;-82
2023/02/10 03:12:47;;;;;;;;;;;;;;;-2.16;71.50;101951.63;1087142;54;20535;-79
2023/02/10 03:13:51;;;;;;;;;;;;;;;-2.13;71.56;101947.22;1087508;54;19942;-81
2023/02/10 03:14:52;;;;;;;;;;;;;;;-2.15;71.46;101943.72;1087443;54;19947;-79
2023/02/10 03:15:56;;;;;;;;;;;;;;;-2.19;71.76;101944.66;1087356;54;19962;-79
2023/02/10 03:16:57;;;;;;;;;;;;;;;-2.22;72.00;101945.53;1087309;54;19950;-80
2023/02/10 03:18:04;;;;;;;;;;;;;;;-2.21;72.06;101942.03;1087242;54;19942;-80
2023/02/10 03:19:05;;;;;;;;;;;;;;;-2.37;72.39;101941.38;1087493;54;20830;-81
2023/02/10 03:20:10;;;;;;;;;;;;;;;-2.35;72.28;101944.81;1087243;54;19947;-82
2023/02/10 03:21:11;;;;;;;;;;;;;;;-2.36;72.39;101948.31;1087440;54;19951;-81
2023/02/10 03:22:15;;;;;;;;;;;;;;;-2.33;72.27;101949.16;1087315;54;19949;-81
2023/02/10 03:23:17;;;;;;;;;;;;;;;-2.39;72.13;101963.19;1087989;54;20575;-83
2023/02/10 03:24:21;;;;;;;;;;;;;;;-2.47;72.46;101957.16;1088186;54;19942;-83
2023/02/10 03:25:22;;;;;;;;;;;;;;;-2.46;72.69;101957.16;1087752;54;19926;-82
2023/02/10 03:26:49;;;;;;;;;;;;;;;-2.45;72.32;101958.88;1087861;54;19943;-88
2023/02/10 03:27:50;;;;;;;;;;;;;;;-2.42;72.39;101958.84;1087911;54;19926;-82
2023/02/10 03:28:55;;;;;;;;;;;;;;;-2.41;72.37;101967.59;1090966;39;20507;-82
2023/02/10 03:29:56;;;;;;;;;;;;;;;-2.30;72.15;101957.00;1087888;54;19942;-81
2023/02/10 03:31:30;;;;;;;;;;;;;;;-2.35;71.62;101965.78;1088104;54;19951;-80
2023/02/10 03:38:48;;;;;;;;;;;;;;;-2.76;73.11;101959.16;1087615;54;19942;-80
2023/02/10 03:39:49;;;;;;;;;;;;;;;-2.72;73.11;101958.25;1087397;54;20574;-79
2023/02/10 03:40:53;;;;;;;;;;;;;;;-2.80;73.13;101959.22;1087036;54;19950;-79
2023/02/10 03:41:54;;;;;;;;;;;;;;;-2.68;72.91;101957.34;1086647;54;20610;-80
2023/02/10 03:42:58;;;;;;;;;;;;;;;-2.68;72.66;101964.31;1086482;54;19985;-79
2023/02/10 03:43:59;;;;;;;;;;;;;;;-2.65;72.85;101966.94;1086649;54;19953;-79
2023/02/10 03:45:03;;;;;;;;;;;;;;;-2.59;72.43;101964.25;1086529;54;19951;-79
2023/02/10 03:46:04;;;;;;;;;;;;;;;-2.75;72.78;101976.63;1086188;54;19982;-78
2023/02/10 03:47:08;;;;;;;;;;;;;;;-2.74;73.14;101967.84;1086172;54;19957;-79
2023/02/10 03:48:09;;;;;;;;;;;;;;;-2.73;72.92;101973.97;1087429;39;20428;-80
2023/02/10 03:49:13;;;;;;;;;;;;;;;-2.77;72.84;101978.38;1086404;54;19950;-78
2023/02/10 03:50:16;;;;;;;;;;;;;;;-2.72;72.83;101976.56;1086511;54;19974;-80
2023/02/10 03:51:20;;;;;;;;;;;;;;;-2.68;72.74;101980.91;1086635;54;19946;-80
2023/02/10 03:52:21;;;;;;;;;;;;;;;-2.71;72.53;101988.78;1087568;47;19946;-80
2023/02/10 03:53:25;;;;;;;;;;;;;;;-2.75;72.67;101983.59;1086631;54;19955;-79
2023/02/10 03:54:27;;;;;;;;;;;;;;;-2.79;73.08;101985.38;1086710;54;19942;-79
2023/02/10 03:55:31;;;;;;;;;;;;;;;-2.79;73.12;101990.59;1086793;54;19939;-80
2023/02/10 03:56:32;;;;;;;;;;;;;;;-2.77;73.06;101986.22;1086632;54;19939;-80
2023/02/10 03:57:36;;;;;;;;;;;;;;;-2.69;72.89;101981.78;1086775;54;20433;-78
2023/02/10 03:58:37;;;;;;;;;;;;;;;-2.76;72.86;101989.69;1086823;54;19965;-79
2023/02/10 03:59:41;;;;;;;;;;;;;;;-2.80;72.94;101986.25;1088289;39;20314;-81
2023/02/10 08:33:55;;;;;;;;;;;;;;;-2.66;73.96;102119.69;1087661;54;19943;-84
2023/02/10 08:36:32;;;;;;;;;;;;;;;-2.53;73.89;102123.09;1087864;54;19942;-84
2023/02/10 08:37:40;;;;;;;;;;;;;;;-2.50;73.85;102120.47;1088159;54;19962;-84
2023/02/10 08:38:48;;;;;;;;;;;;;;;-2.46;73.54;102124.81;1088241;54;19943;-82
2023/02/10 08:40:04;;;;;;;;;;;;;;;-2.35;73.23;102128.22;1088329;54;19995;-83
2023/02/10 08:41:17;;;;;;;;;;;;;;;-2.42;73.32;102125.66;1088195;54;19942;-82
2023/02/10 08:42:22;;;;;;;;;;;;;;;-2.36;73.34;102121.22;1088303;54;19927;-83
2023/02/10 08:43:28;;;;;;;;;;;;;;;-2.47;73.28;102119.56;1088237;54;19950;-84
2023/02/10 08:44:40;;;;;;;;;;;;;;;-2.44;73.61;102115.19;1088258;54;19943;-83
2023/02/10 08:46:03;;;;;;;;;;;;;;;-2.33;73.76;102124.72;1088241;54;19974;-82
2023/02/10 08:47:21;;;;;;;;;;;;;;;-2.25;73.60;102123.78;1088278;54;19939;-85
2023/02/10 08:48:33;;;;;;;;;;;;;;;-2.17;73.40;102126.34;1091594;46;19943;-83
2023/02/10 08:51:24;;;;;;;;;;;;;;;-2.19;73.35;102128.13;1089252;46;19938;-84
2023/02/10 08:52:49;;;;;;;;;;;;;;;-2.06;73.58;102126.25;1087895;54;19942;-83
2023/02/10 08:54:07;;;;;;;;;;;;;;;-2.10;73.41;102128.06;1087774;54;19939;-83
2023/02/10 08:59:03;;;;;;;;;;;;;;;-1.93;73.53;102127.88;1094298;39;20158;-82
2023/02/10 09:05:09;;;;;;;;;;;;;;;-1.14;71.85;102134.97;1087691;54;19968;-83
2023/02/10 09:13:22;;;;;;;;;;;;;;;-0.15;68.43;102145.88;1087830;54;19946;-83
2023/02/10 09:14:51;;;;;;;;;;;;;;;-0.06;68.16;102140.47;1089672;46;19923;-83
2023/02/10 09:19:28;;;;;;;;;;;;;;;0.60;66.86;102142.81;1088039;54;19943;-83
2023/02/10 09:20:58;;;;;;;;;;;;;;;0.86;66.52;102138.78;1088126;54;19942;-83
2023/02/10 09:22:35;;;;;;;;;;;;;;;1.09;65.52;102133.03;1088107;54;19970;-83
2023/02/10 09:27:19;;;;;;;;;;;;;;;1.46;63.81;102129.63;1087550;54;19954;-83
2023/02/10 09:37:02;;;;;;;;;;;;;;;;;;;;;
2023/02/10 09:38:35;;;;;;;;;;;;;;;2.40;61.11;102121.16;1087646;54;20622;-81
2023/02/10 09:41:50;;;;;;;;;;;;;;;3.15;60.08;102119.94;1087337;54;19965;-82
2023/02/10 09:43:30;;;;;;;;;;;;;;;3.43;59.65;102119.06;1087216;54;19968;-82
2023/02/10 09:44:52;;;;;;;;;;;;;;;2.75;59.21;102115.78;1087470;54;19954;-82
2023/02/10 09:46:00;;;;;;;;;;;;;;;2.86;59.85;102116.38;1087422;54;19978;-82
2023/02/10 09:47:27;;;;;;;;;;;;;;;2.95;59.26;102110.81;1087522;54;19943;-83
2023/02/10 09:48:39;;;;;;;;;;;;;;;2.71;59.49;102116.81;1087416;54;19939;-82
2023/02/10 09:50:02;;;;;;;;;;;;;;;2.78;59.26;102118.34;1087599;54;19977;-82
2023/02/10 09:51:12;;;;;;;;;;;;;;;2.78;59.49;102121.88;1087578;54;20011;-82
2023/02/10 09:52:22;;;;;;;;;;;;;;;2.85;59.23;102113.78;1087529;54;19927;-82
2023/02/10 09:53:27;;;;;;;;;;;;;;;2.63;59.68;102123.19;1087440;54;19990;-82
2023/02/10 09:54:33;;;;;;;;;;;;;;;2.58;59.85;102125.06;1087599;54;19927;-83
2023/02/10 09:55:39;;;;;;;;;;;;;;;2.53;59.98;102121.69;1087539;54;19943;-82
2023/02/10 09:56:43;;;;;;;;;;;;;;;2.68;60.47;102119.53;1087500;54;19942;-84
2023/02/10 09:57:48;;;;;;;;;;;;;;;3.15;59.78;102124.34;1087628;54;19942;-82
2023/02/10 09:58:54;;;;;;;;;;;;;;;3.50;58.88;102115.31;1087656;54;19968;-83
2023/02/10 09:59:58;;;;;;;;;;;;;;;3.44;58.02;102115.53;1087577;54;19942;-83
2023/02/10 10:01:13;;;;;;;;;;;;;;;3.08;58.66;102127.16;1087551;54;19967;-82
2023/02/10 10:02:18;;;;;;;;;;;;;;;3.08;59.03;102118.38;1087636;54;20757;-82
2023/02/10 10:03:25;;;;;;;;;;;;;;;3.26;58.45;102128.41;1088733;46;19942;-83
2023/02/10 10:04:30;;;;;;;;;;;;;;;3.29;58.32;102132.72;1089873;39;20558;-82
2023/02/10 10:05:40;;;;;;;;;;;;;;;3.22;58.29;102132.03;1087924;54;19962;-84
2023/02/10 10:06:46;;;;;;;;;;;;;;;3.20;58.25;102131.25;1087978;54;19939;-82
2023/02/10 10:07:53;;;;;;;;;;;;;;;3.51;58.01;102130.28;1087971;54;19967;-82
2023/02/10 10:09:01;;;;;;;;;;;;;;;3.71;57.21;102128.78;1087971;54;19948;-83
2023/02/10 10:10:13;;;;;;;;;;;;;;;3.96;57.19;102130.66;1087702;54;19976;-84
2023/02/10 10:11:24;;;;;;;;;;;;;;;4.15;57.65;102137.06;1088000;54;19943;-83
2023/02/10 10:12:28;;;;;;;;;;;;;;;4.53;56.35;102139.28;1087977;54;19930;-83
2023/02/10 10:13:30;;;;;;;;;;;;;;;4.47;55.66;102137.72;1087947;54;20010;-82
2023/02/10 10:14:37;;;;;;;;;;;;;;;4.43;55.45;102136.09;1088068;54;19954;-83
2023/02/10 10:15:43;;;;;;;;;;;;;;;4.19;55.45;102130.72;1088108;54;19942;-83
2023/02/10 10:18:04;;;;;;;;;;;;;;;4.76;55.54;102114.59;1087286;54;19947;-80
2023/02/10 10:19:12;;;;;;;;;;;;;;;4.50;54.94;102113.78;1088601;46;19965;-81
2023/02/10 10:20:31;;;;;;;;;;;;;;;4.38;54.57;102122.16;1087614;46;19962;-79
2023/02/10 10:21:43;;;;;;;;;;;;;;;4.37;54.50;102123.94;1087094;54;19994;-80
2023/02/10 10:22:52;;;;;;;;;;;;;;;4.20;54.92;102121.03;1087293;54;19953;-79
2023/02/10 10:24:06;;;;;;;;;;;;;;;4.73;55.23;102113.84;1087944;46;19946;-78
2023/02/10 10:25:15;;;;;;;;;;;;;;;4.95;54.00;102117.44;1088563;46;19934;-79
2023/02/10 10:26:23;;;;;;;;;;;;;;;5.31;54.28;102110.78;1087806;46;19943;-78
2023/02/10 10:27:31;;;;;;;;;;;;;;;5.62;53.37;102112.22;1087978;46;19953;-78
2023/02/10 10:28:42;;;;;;;;;;;;;;;5.11;52.78;102114.19;1089069;46;19934;-79
2023/02/10 10:29:51;;;;;;;;;;;;;;;5.49;53.20;102105.66;1087812;46;19951;-79
2023/02/10 10:30:55;;;;;;;;;;;;;;;5.59;51.98;102114.97;1087433;54;19973;-78
2023/02/10 10:32:06;;;;;;;;;;;;;;;5.77;51.62;102102.75;1088570;46;19942;-78
2023/02/10 10:33:16;;;;;;;;;;;;;;;5.96;51.51;102112.63;1088272;46;19957;-79
2023/02/10 10:34:22;;;;;;;;;;;;;;;6.19;52.03;102101.91;1087333;54;19941;-78
2023/02/10 10:35:26;;;;;;;;;;;;;;;6.46;51.78;102108.75;1087305;54;19946;-81
2023/02/10 10:36:34;;;;;;;;;;;;;;;5.99;50.14;102104.53;1087309;54;19979;-78
2023/02/10 10:37:38;;;;;;;;;;;;;;;5.52;50.73;102109.06;1087229;54;19957;-80
2023/02/10 10:38:45;;;;;;;;;;;;;;;5.37;51.25;102102.59;1087434;54;19950;-79
2023/02/10 10:39:52;;;;;;;;;;;;;;;5.25;51.19;102105.72;1087330;54;19939;-78
2023/02/10 10:40:59;;;;;;;;;;;;;;;5.39;51.52;102107.81;1087995;46;19943;-78
2023/02/10 10:42:04;;;;;;;;;;;;;;;5.37;51.05;102109.66;1086155;54;20261;-78
2023/02/10 10:43:13;;;;;;;;;;;;;;;5.43;50.69;102104.13;1085727;54;19958;-79
2023/02/10 10:44:18;;;;;;;;;;;;;;;5.68;51.00;102103.13;1085401;54;19951;-79
2023/02/10 10:45:24;;;;;;;;;;;;;;;5.88;50.26;102103.19;1085499;54;20777;-78
2023/02/10 10:46:30;;;;;;;;;;;;;;;5.76;49.29;102106.34;1086909;39;20382;-79
2023/02/10 10:47:36;;;;;;;;;;;;;;;5.68;49.51;102104.00;1085393;54;20450;-79
2023/02/10 10:48:42;;;;;;;;;;;;;;;5.71;49.31;102101.22;1085436;46;20052;-79
2023/02/10 10:49:43;;;;;;;;;;;;;;;5.42;49.64;102100.59;1085316;54;19946;-78
2023/02/10 10:50:47;;;;;;;;;;;;;;;5.18;48.76;102107.72;1085668;54;19947;-78
2023/02/10 10:51:51;;;;;;;;;;;;;;;5.19;48.84;102111.28;1086865;39;20216;-79
2023/02/10 10:52:55;;;;;;;;;;;;;;;5.37;49.00;102107.91;1085589;54;19977;-78
2023/02/10 10:53:57;;;;;;;;;;;;;;;5.56;49.57;102101.84;1085519;54;19950;-78
2023/02/10 10:55:03;;;;;;;;;;;;;;;5.94;49.16;102105.56;1085517;54;19994;-78
2023/02/10 10:56:09;;;;;;;;;;;;;;;6.18;48.94;102099.31;1086436;54;19962;-78
2023/02/10 10:57:15;;;;;;;;;;;;;;;6.02;47.63;102105.28;1087716;46;19950;-78
2023/02/10 10:58:26;;;;;;;;;;;;;;;5.91;47.75;102099.53;1087854;39;20709;-79
2023/02/10 10:59:34;;;;;;;;;;;;;;;5.67;48.01;102101.41;1087976;46;19966;-81
2023/02/10 11:00:38;;;;;;;;;;;;;;;6.07;47.46;102092.66;1087474;54;19943;-79
2023/02/10 11:01:43;;;;;;;;;;;;;;;6.19;47.13;102099.25;1086961;54;19957;-79
2023/02/10 11:02:54;;;;;;;;;;;;;;;6.08;47.18;102093.56;1085474;54;19950;-79
2023/02/10 11:04:04;;;;;;;;;;;;;;;5.72;47.42;102099.41;1085501;54;19977;-79
2023/02/10 11:05:14;;;;;;;;;;;;;;;5.46;47.87;102101.34;1085378;54;20025;-78